Time;durP1;ratioP1;P1;durP2;ratioP2;P2;SDS_P1;SDS_P2;PMS_P1;PMS_P2;Temp;Humidity;BMP_temperature;BMP_pressure;BME280_temperature;BME280_humidity;BME280_pressure;Samples;Min_cycle;Max_cycle;Signal;HPM_P1;HPM_P2
2021/07/19 00:00:46;;;;;;;3.63;3.33;;;18.60;99.90;;;;;;5044787;28;20981;-72
2021/07/19 00:03:13;;;;;;;3.27;3.07;;;18.60;99.90;;;;;;5044651;28;20471;-71
2021/07/19 00:05:41;;;;;;;3.20;2.90;;;18.50;99.90;;;;;;5045310;28;20761;-71
2021/07/19 00:08:07;;;;;;;4.23;3.07;;;18.40;99.90;;;;;;5044972;28;20472;-71
2021/07/19 00:10:34;;;;;;;4.20;3.17;;;18.30;99.90;;;;;;5044686;28;20924;-71
2021/07/19 00:13:03;;;;;;;4.40;3.13;;;18.30;99.90;;;;;;5044853;28;20836;-71
2021/07/19 00:15:31;;;;;;;4.70;3.17;;;18.20;99.90;;;;;;5045059;28;20933;-71
2021/07/19 00:17:58;;;;;;;3.97;3.17;;;18.20;99.90;;;;;;5045135;28;20459;-71
2021/07/19 00:20:25;;;;;;;3.93;2.90;;;18.10;99.90;;;;;;5044160;28;20459;-71
2021/07/19 00:22:52;;;;;;;7.13;3.07;;;18.10;99.90;;;;;;5045190;28;20455;-72
2021/07/19 00:25:20;;;;;;;4.53;3.23;;;18.00;99.90;;;;;;5044735;28;21011;-71
2021/07/19 00:27:47;;;;;;;3.67;3.27;;;18.00;99.90;;;;;;5045180;28;20830;-71
2021/07/19 00:30:15;;;;;;;3.50;3.10;;;17.90;99.90;;;;;;5044311;28;20488;-72
2021/07/19 00:32:44;;;;;;;4.90;3.30;;;17.90;99.90;;;;;;5044932;28;20546;-72
2021/07/19 00:35:11;;;;;;;3.40;3.10;;;17.90;99.90;;;;;;5044556;28;20495;-72
2021/07/19 00:37:39;;;;;;;4.53;3.40;;;17.80;99.90;;;;;;5044690;28;20839;-72
2021/07/19 00:40:09;;;;;;;5.53;3.40;;;17.70;99.90;;;;;;5043763;28;20556;-71
2021/07/19 00:42:39;;;;;;;3.33;3.13;;;17.80;99.90;;;;;;5044375;28;20474;-71
2021/07/19 00:45:09;;;;;;;3.70;3.30;;;17.70;99.90;;;;;;5044242;28;20479;-71
2021/07/19 00:47:36;;;;;;;3.60;3.30;;;17.70;99.90;;;;;;5044697;28;20468;-72
2021/07/19 00:50:05;;;;;;;5.23;3.80;;;17.60;99.90;;;;;;5044153;28;20455;-72
2021/07/19 00:52:32;;;;;;;3.50;3.20;;;17.60;99.90;;;;;;5045107;28;21197;-72
2021/07/19 00:54:59;;;;;;;3.63;3.33;;;17.60;99.90;;;;;;5044395;28;20491;-71
2021/07/19 00:57:27;;;;;;;3.83;3.50;;;17.50;99.90;;;;;;5044770;28;20467;-71
2021/07/19 00:59:55;;;;;;;3.30;2.80;;;17.50;99.90;;;;;;5044057;28;20488;-72
2021/07/19 01:02:22;;;;;;;3.70;3.37;;;17.50;99.90;;;;;;5044559;28;20488;-71
2021/07/19 01:04:50;;;;;;;3.97;3.00;;;17.40;99.90;;;;;;5044513;28;21296;-72
2021/07/19 01:07:19;;;;;;;3.30;3.03;;;17.40;99.90;;;;;;5044235;28;20510;-72
2021/07/19 01:09:46;;;;;;;3.60;3.17;;;17.40;99.90;;;;;;5043565;28;20467;-71
2021/07/19 01:12:13;;;;;;;3.37;2.90;;;17.30;99.90;;;;;;5043958;28;20521;-71
2021/07/19 01:14:40;;;;;;;4.30;3.23;;;17.30;99.90;;;;;;5044751;28;20515;-71
2021/07/19 01:17:07;;;;;;;4.43;3.00;;;17.30;99.90;;;;;;5044731;28;20467;-74
2021/07/19 01:19:36;;;;;;;4.33;3.30;;;17.20;99.90;;;;;;5047500;28;20548;-74
2021/07/19 01:22:30;;;;;;;3.67;3.20;;;17.20;99.90;;;;;;5046732;28;20463;-73
2021/07/19 01:25:09;;;;;;;4.03;3.37;;;17.20;99.90;;;;;;5094938;22;22110;-70
2021/07/19 01:27:56;;;;;;;3.80;3.50;;;17.10;99.90;;;;;;4961119;28;20470;-71
2021/07/19 01:30:29;;;;;;;4.70;3.20;;;17.20;99.90;;;;;;4947323;28;20459;-70
2021/07/19 01:32:59;;;;;;;4.00;3.10;;;17.10;99.90;;;;;;4947519;29;20470;-70
2021/07/19 01:35:27;;;;;;;4.00;3.37;;;17.10;99.90;;;;;;4947570;29;20484;-70
2021/07/19 01:37:55;;;;;;;4.10;3.50;;;17.00;99.90;;;;;;4947469;29;20460;-69
2021/07/19 01:40:23;;;;;;;2.93;2.73;;;17.00;99.90;;;;;;4946896;29;21010;-70
2021/07/19 01:42:50;;;;;;;3.73;3.43;;;17.00;99.90;;;;;;4948047;28;20472;-70
2021/07/19 01:45:17;;;;;;;3.53;3.23;;;17.00;99.90;;;;;;4950782;29;20492;-70
2021/07/19 01:47:47;;;;;;;4.63;3.67;;;16.90;99.90;;;;;;4950718;29;20873;-70
2021/07/19 01:50:14;;;;;;;5.60;3.57;;;16.90;99.90;;;;;;4950644;29;20836;-71
2021/07/19 01:52:41;;;;;;;5.87;3.83;;;16.90;99.90;;;;;;4950589;29;20480;-69
2021/07/19 01:55:09;;;;;;;4.07;3.63;;;16.90;99.90;;;;;;4950577;29;20517;-70
2021/07/19 01:57:37;;;;;;;3.93;3.60;;;16.80;99.90;;;;;;4950929;29;20816;-70
2021/07/19 02:00:07;;;;;;;4.57;3.30;;;16.80;99.90;;;;;;4950140;29;20903;-70
2021/07/19 02:02:36;;;;;;;3.23;2.93;;;16.80;99.90;;;;;;4950819;29;20514;-70
2021/07/19 02:05:07;;;;;;;3.67;3.37;;;16.70;99.90;;;;;;4949372;29;20488;-70
2021/07/19 02:07:37;;;;;;;3.83;3.53;;;16.70;99.90;;;;;;4950161;29;20467;-70
2021/07/19 02:10:06;;;;;;;5.03;3.97;;;16.70;99.90;;;;;;4949887;29;20465;-70
2021/07/19 02:12:36;;;;;;;3.07;2.83;;;16.70;99.90;;;;;;4950104;29;20856;-70
2021/07/19 02:15:07;;;;;;;4.20;3.40;;;16.60;99.90;;;;;;4950008;29;20487;-69
2021/07/19 02:17:36;;;;;;;4.00;2.97;;;16.60;99.90;;;;;;4950420;29;20464;-71
2021/07/19 02:20:07;;;;;;;4.03;3.63;;;16.50;99.90;;;;;;4949769;29;20855;-68
2021/07/19 02:22:35;;;;;;;5.30;3.23;;;16.50;99.90;;;;;;4949948;29;20479;-70
2021/07/19 02:25:01;;;;;;;3.80;3.40;;;16.50;99.90;;;;;;4949799;29;20503;-70
2021/07/19 02:27:29;;;;;;;5.40;3.20;;;16.50;99.90;;;;;;4949987;29;20475;-70
2021/07/19 02:29:57;;;;;;;3.87;3.47;;;16.50;99.90;;;;;;4949562;29;20970;-70
2021/07/19 02:32:24;;;;;;;3.57;3.10;;;16.50;99.90;;;;;;4949726;29;20886;-69
2021/07/19 02:34:51;;;;;;;3.30;3.00;;;16.50;99.90;;;;;;4949963;29;20502;-70
2021/07/19 02:37:20;;;;;;;3.73;3.27;;;16.50;99.90;;;;;;4949789;29;20468;-69
2021/07/19 02:39:49;;;;;;;3.97;3.67;;;16.40;99.90;;;;;;4949256;29;20488;-71
2021/07/19 02:42:16;;;;;;;3.73;3.40;;;16.40;99.90;;;;;;4949743;29;20491;-71
2021/07/19 02:44:44;;;;;;;4.10;3.53;;;16.40;99.90;;;;;;4949736;29;20484;-71
2021/07/19 02:47:11;;;;;;;3.97;3.47;;;16.40;99.90;;;;;;4949726;29;20507;-70
2021/07/19 02:49:39;;;;;;;5.23;3.47;;;16.30;99.90;;;;;;4949536;29;20477;-71
2021/07/19 02:52:07;;;;;;;3.83;3.53;;;16.30;99.90;;;;;;4949574;29;20475;-71
2021/07/19 02:54:36;;;;;;;4.30;3.67;;;16.30;99.90;;;;;;4948276;29;20851;-71
2021/07/19 02:57:04;;;;;;;4.20;3.30;;;16.30;99.90;;;;;;4949481;29;20998;-69
2021/07/19 02:59:31;;;;;;;4.63;4.23;;;16.30;99.90;;;;;;4948859;29;20464;-71
2021/07/19 03:01:58;;;;;;;3.57;3.27;;;16.30;99.90;;;;;;4949711;29;20487;-69
2021/07/19 03:04:27;;;;;;;4.00;3.60;;;16.30;99.90;;;;;;4949275;29;20488;-71
2021/07/19 03:06:56;;;;;;;4.93;3.77;;;16.30;99.90;;;;;;4949419;29;20475;-71
2021/07/19 03:09:26;;;;;;;5.40;3.83;;;16.30;99.90;;;;;;4948766;29;20819;-70
2021/07/19 03:11:55;;;;;;;3.93;3.60;;;16.30;99.90;;;;;;4949401;29;20475;-70
2021/07/19 03:14:25;;;;;;;3.90;3.60;;;16.30;99.90;;;;;;4948750;29;20487;-71
2021/07/19 03:16:55;;;;;;;4.30;3.90;;;16.30;99.90;;;;;;4949305;29;20836;-71
2021/07/19 03:19:24;;;;;;;4.67;3.87;;;16.20;99.90;;;;;;4948491;29;21096;-70
2021/07/19 03:21:54;;;;;;;3.40;3.10;;;16.20;99.90;;;;;;4949209;29;20487;-71
2021/07/19 03:24:23;;;;;;;6.40;3.93;;;16.20;99.90;;;;;;4948670;29;20484;-70
2021/07/19 03:26:51;;;;;;;5.00;3.50;;;16.20;99.90;;;;;;4948929;29;20476;-70
2021/07/19 03:29:20;;;;;;;4.07;3.50;;;16.20;99.90;;;;;;4948648;29;20483;-70
2021/07/19 03:31:48;;;;;;;3.40;3.10;;;16.10;99.90;;;;;;4949056;29;20464;-70
2021/07/19 03:34:15;;;;;;;4.30;3.90;;;16.20;99.90;;;;;;4948655;29;20488;-71
2021/07/19 03:36:43;;;;;;;5.10;4.07;;;16.20;99.90;;;;;;4950529;28;21038;-70
2021/07/19 03:39:12;;;;;;;4.30;3.90;;;16.20;99.90;;;;;;4966703;28;20470;-69
2021/07/19 03:41:39;;;;;;;4.40;3.97;;;16.10;99.90;;;;;;4967416;28;20849;-70
2021/07/19 03:44:07;;;;;;;4.13;3.83;;;16.10;99.90;;;;;;4967339;28;20487;-71
2021/07/19 03:46:35;;;;;;;4.70;3.80;;;16.10;99.90;;;;;;4967602;28;20475;-71
2021/07/19 03:49:03;;;;;;;6.20;3.70;;;16.10;99.90;;;;;;4967247;28;21009;-70
2021/07/19 03:51:32;;;;;;;5.35;3.80;;;16.10;99.90;;;;;;4966561;28;20588;-70
2021/07/19 03:53:59;;;;;;;4.10;3.70;;;16.00;99.90;;;;;;4967256;28;20216;-70
2021/07/19 03:56:28;;;;;;;5.10;4.07;;;16.00;99.90;;;;;;4967645;28;20463;-71
2021/07/19 03:58:57;;;;;;;6.70;3.93;;;16.00;99.90;;;;;;4966798;28;20548;-71
2021/07/19 04:01:25;;;;;;;4.70;3.40;;;16.00;99.90;;;;;;4966311;28;20898;-72
2021/07/19 04:03:55;;;;;;;7.03;4.00;;;16.10;99.90;;;;;;4966904;28;20510;-71
2021/07/19 04:06:23;;;;;;;3.83;3.53;;;16.10;99.90;;;;;;4966173;28;20550;-72
2021/07/19 04:08:51;;;;;;;4.70;3.87;;;16.10;99.90;;;;;;4967420;28;20463;-71
2021/07/19 04:11:20;;;;;;;5.90;4.10;;;16.10;99.90;;;;;;4965613;28;20451;-71
2021/07/19 04:13:47;;;;;;;4.40;4.00;;;16.10;99.90;;;;;;4966087;28;20545;-71
2021/07/19 04:16:18;;;;;;;4.60;4.17;;;16.10;99.90;;;;;;4966174;28;20502;-72
2021/07/19 04:18:45;;;;;;;3.50;3.20;;;16.10;99.90;;;;;;4967342;28;20558;-71
2021/07/19 04:21:14;;;;;;;4.10;3.67;;;16.10;99.90;;;;;;4966300;28;20490;-70
2021/07/19 04:23:41;;;;;;;3.93;3.60;;;16.10;99.90;;;;;;4967500;28;20463;-71
2021/07/19 04:26:11;;;;;;;4.57;3.90;;;16.10;99.90;;;;;;4967287;28;20478;-72
2021/07/19 04:28:39;;;;;;;4.83;4.00;;;16.10;99.90;;;;;;4966908;28;20459;-71
2021/07/19 04:31:06;;;;;;;3.87;3.47;;;16.10;99.90;;;;;;4966589;28;20470;-73
2021/07/19 04:33:33;;;;;;;3.70;3.33;;;16.10;99.90;;;;;;4966726;28;20467;-72
2021/07/19 04:36:00;;;;;;;5.27;4.27;;;16.10;99.90;;;;;;4967169;28;20466;-72
2021/07/19 04:38:28;;;;;;;5.03;3.53;;;16.20;99.90;;;;;;4966908;28;20471;-72
2021/07/19 04:40:57;;;;;;;5.20;4.23;;;16.20;99.90;;;;;;4966689;28;20487;-71
2021/07/19 04:43:26;;;;;;;4.57;4.20;;;16.20;99.90;;;;;;4966990;28;20470;-72
2021/07/19 04:45:52;;;;;;;4.40;3.53;;;16.30;99.90;;;;;;4966952;28;20483;-72
2021/07/19 04:48:21;;;;;;;4.87;3.50;;;16.30;99.90;;;;;;4966951;28;20474;-72
2021/07/19 04:50:48;;;;;;;8.30;4.23;;;16.30;99.90;;;;;;4966370;28;20985;-72
2021/07/19 04:53:16;;;;;;;4.13;3.80;;;16.30;99.90;;;;;;4966898;28;20463;-71
2021/07/19 04:55:47;;;;;;;4.60;3.80;;;16.40;99.90;;;;;;4967150;28;21043;-71
2021/07/19 04:58:16;;;;;;;4.90;4.20;;;16.40;99.90;;;;;;4966910;28;20467;-73
2021/07/19 05:00:46;;;;;;;5.60;3.77;;;16.40;99.90;;;;;;4966373;28;20490;-72
2021/07/19 05:03:14;;;;;;;4.10;3.70;;;16.50;99.90;;;;;;4966555;28;21007;-72
2021/07/19 05:05:41;;;;;;;4.13;3.77;;;16.50;99.90;;;;;;4966833;28;20483;-72
2021/07/19 05:08:10;;;;;;;5.00;3.50;;;16.60;99.90;;;;;;4966874;28;20463;-72
2021/07/19 05:10:37;;;;;;;3.90;3.50;;;16.60;99.90;;;;;;4966664;28;20524;-71
2021/07/19 05:13:05;;;;;;;4.13;3.83;;;16.60;99.90;;;;;;4966778;28;20471;-72
2021/07/19 05:15:33;;;;;;;6.10;3.73;;;16.60;99.90;;;;;;4966131;28;20868;-71
2021/07/19 05:18:00;;;;;;;5.13;4.03;;;16.70;99.90;;;;;;4972527;28;20473;-72
2021/07/19 05:20:29;;;;;;;4.43;3.37;;;16.70;99.90;;;;;;4978912;28;21017;-71
2021/07/19 05:22:56;;;;;;;4.23;3.83;;;16.80;99.90;;;;;;4973387;28;20462;-71
2021/07/19 05:25:25;;;;;;;5.10;4.60;;;16.80;99.90;;;;;;4975151;28;20490;-72
2021/07/19 05:28:07;;;;;;;4.40;4.10;;;16.90;99.90;;;;;;4979466;28;20954;-71
2021/07/19 05:30:35;;;;;;;5.23;3.70;;;16.90;99.90;;;;;;4977212;28;20462;-71
2021/07/19 05:33:02;;;;;;;5.17;4.67;;;17.00;99.90;;;;;;4975409;28;20466;-71
2021/07/19 05:35:29;;;;;;;4.63;4.17;;;17.00;99.90;;;;;;4976149;28;20600;-72
2021/07/19 05:37:56;;;;;;;4.53;4.13;;;17.10;99.90;;;;;;4978769;28;20467;-72
2021/07/19 05:40:23;;;;;;;5.13;4.10;;;17.20;99.90;;;;;;4974221;28;20475;-72
2021/07/19 05:42:50;;;;;;;4.60;4.20;;;17.20;99.90;;;;;;4974398;28;20870;-71
2021/07/19 05:45:18;;;;;;;4.87;4.40;;;17.30;99.90;;;;;;4968870;28;20482;-71
2021/07/19 05:47:45;;;;;;;4.67;4.27;;;17.30;99.90;;;;;;4969497;28;20467;-72
2021/07/19 05:50:12;;;;;;;4.60;3.97;;;17.40;99.90;;;;;;4968770;28;20836;-72
2021/07/19 05:52:39;;;;;;;4.10;3.70;;;17.40;99.90;;;;;;4966943;28;20462;-71
2021/07/19 05:55:07;;;;;;;5.17;4.03;;;17.50;99.90;;;;;;4969181;28;20487;-72
2021/07/19 05:57:35;;;;;;;4.27;3.77;;;17.50;99.90;;;;;;4969505;28;20471;-71
2021/07/19 06:00:01;;;;;;;4.40;4.00;;;17.60;99.90;;;;;;4968745;28;20469;-71
2021/07/19 06:02:30;;;;;;;4.47;4.07;;;17.70;99.90;;;;;;4969243;28;20510;-71
2021/07/19 06:04:57;;;;;;;4.97;3.80;;;17.70;99.90;;;;;;4969614;28;20494;-71
2021/07/19 06:07:24;;;;;;;4.53;3.90;;;17.80;99.90;;;;;;4969602;28;20466;-71
2021/07/19 06:09:50;;;;;;;3.80;3.50;;;17.80;99.90;;;;;;4969001;28;20471;-72
2021/07/19 06:12:17;;;;;;;4.03;3.63;;;17.90;99.90;;;;;;4969233;28;20565;-71
2021/07/19 06:14:44;;;;;;;5.17;4.67;;;18.00;99.90;;;;;;4969522;28;20482;-71
2021/07/19 06:17:12;;;;;;;4.30;3.90;;;18.10;99.90;;;;;;4969437;28;20463;-72
2021/07/19 06:19:41;;;;;;;4.00;3.60;;;18.10;99.90;;;;;;4969487;28;20463;-71
2021/07/19 06:22:09;;;;;;;6.13;4.70;;;18.20;99.90;;;;;;4969383;28;20494;-72
2021/07/19 06:24:36;;;;;;;4.63;4.20;;;18.20;99.90;;;;;;4969513;28;20494;-72
2021/07/19 06:27:03;;;;;;;4.40;3.97;;;18.30;99.90;;;;;;4969162;28;20466;-72
2021/07/19 06:29:30;;;;;;;4.20;3.80;;;18.40;99.90;;;;;;4965645;28;20798;-72
2021/07/19 06:31:57;;;;;;;5.37;4.00;;;18.40;99.90;;;;;;4969390;28;20471;-73
2021/07/19 06:34:24;;;;;;;4.53;4.10;;;18.50;99.90;;;;;;4968282;28;20479;-72
2021/07/19 06:36:52;;;;;;;4.27;3.87;;;18.50;99.90;;;;;;4969020;28;20474;-72
2021/07/19 06:39:18;;;;;;;5.00;3.90;;;18.60;99.90;;;;;;4966585;28;20463;-71
2021/07/19 06:41:45;;;;;;;4.40;4.00;;;18.60;99.90;;;;;;4966609;28;20491;-72
2021/07/19 06:44:12;;;;;;;6.30;4.03;;;18.70;99.90;;;;;;4966335;28;20487;-72
2021/07/19 06:46:38;;;;;;;4.83;4.33;;;18.80;99.90;;;;;;4967183;28;20485;-72
2021/07/19 06:49:05;;;;;;;4.43;4.03;;;18.80;99.90;;;;;;4967639;28;20516;-72
2021/07/19 06:51:33;;;;;;;5.40;4.23;;;18.90;99.90;;;;;;4969341;28;20525;-72
2021/07/19 06:54:01;;;;;;;4.77;4.27;;;18.90;99.90;;;;;;4969104;28;20486;-71
2021/07/19 06:56:31;;;;;;;5.07;4.57;;;19.10;99.90;;;;;;4969323;28;20968;-71
2021/07/19 06:58:58;;;;;;;4.53;4.10;;;19.10;99.90;;;;;;4969074;28;20946;-71
2021/07/19 07:01:24;;;;;;;4.63;4.20;;;19.20;99.90;;;;;;4968360;28;20864;-71
2021/07/19 07:03:51;;;;;;;4.70;4.20;;;19.30;99.90;;;;;;4968903;28;20487;-72
2021/07/19 07:06:18;;;;;;;4.83;4.43;;;19.30;99.90;;;;;;4968865;28;20463;-71
2021/07/19 07:08:44;;;;;;;4.30;3.90;;;19.40;99.90;;;;;;4969178;28;20474;-71
2021/07/19 07:11:13;;;;;;;5.93;4.90;;;19.50;99.90;;;;;;4968264;28;20464;-72
2021/07/19 07:13:40;;;;;;;5.03;4.63;;;19.60;99.90;;;;;;4968813;28;21123;-71
2021/07/19 07:16:08;;;;;;;5.30;4.77;;;19.70;99.90;;;;;;4968682;28;20467;-71
2021/07/19 07:18:35;;;;;;;4.83;4.33;;;19.70;99.90;;;;;;4968967;28;20474;-71
2021/07/19 07:21:01;;;;;;;4.77;3.90;;;19.80;99.90;;;;;;4968144;28;21262;-71
2021/07/19 07:23:28;;;;;;;4.20;3.73;;;19.90;99.90;;;;;;4968639;28;20463;-71
2021/07/19 07:25:55;;;;;;;5.43;4.23;;;19.90;99.90;;;;;;5039212;22;20869;-73
2021/07/19 07:28:23;;;;;;;4.70;4.20;;;19.90;99.90;;;;;;4968922;28;20769;-73
2021/07/19 07:30:49;;;;;;;5.63;4.20;;;20.00;99.90;;;;;;4968245;28;20463;-73
2021/07/19 07:33:16;;;;;;;5.37;4.60;;;20.00;99.90;;;;;;4969086;28;20459;-73
2021/07/19 07:35:43;;;;;;;4.67;4.20;;;20.10;99.90;;;;;;4968757;28;20487;-73
2021/07/19 07:38:09;;;;;;;6.10;4.50;;;20.10;99.90;;;;;;4969477;28;20463;-73
2021/07/19 07:40:36;;;;;;;4.53;4.10;;;20.20;99.90;;;;;;4948468;28;20472;-73
2021/07/19 07:43:03;;;;;;;5.27;4.27;;;20.20;99.90;;;;;;4948857;29;20918;-73
2021/07/19 07:45:32;;;;;;;4.57;4.07;;;20.30;99.90;;;;;;4947632;28;20913;-73
2021/07/19 07:47:59;;;;;;;5.63;4.80;;;20.40;99.90;;;;;;4947604;28;20971;-73
2021/07/19 07:50:25;;;;;;;5.53;4.83;;;20.40;99.90;;;;;;4947934;28;20833;-73
2021/07/19 07:52:52;;;;;;;8.03;4.67;;;20.40;99.90;;;;;;4947784;28;20982;-73
2021/07/19 07:55:19;;;;;;;4.63;4.10;;;20.50;99.90;;;;;;4947980;28;20491;-73
2021/07/19 07:57:46;;;;;;;4.93;4.50;;;20.60;99.90;;;;;;4947761;28;20467;-73
2021/07/19 08:00:15;;;;;;;8.23;4.63;;;20.70;99.90;;;;;;4947981;28;20468;-73
2021/07/19 08:02:43;;;;;;;5.50;5.00;;;20.80;99.90;;;;;;4947452;28;20583;-73
2021/07/19 08:05:12;;;;;;;4.50;4.10;;;20.80;99.90;;;;;;4947943;28;20591;-73
2021/07/19 08:07:39;;;;;;;5.20;4.70;;;20.90;99.90;;;;;;4947858;28;20468;-73
2021/07/19 08:10:08;;;;;;;5.40;4.43;;;20.90;99.90;;;;;;4947101;28;20464;-73
2021/07/19 08:12:35;;;;;;;5.37;4.80;;;21.00;99.90;;;;;;4947743;28;20460;-73
2021/07/19 08:15:03;;;;;;;5.30;4.30;;;21.00;99.90;;;;;;4946815;28;21275;-73
2021/07/19 08:17:31;;;;;;;4.97;4.47;;;21.10;99.90;;;;;;4946725;28;20460;-74
2021/07/19 08:19:59;;;;;;;5.07;4.43;;;21.10;99.90;;;;;;4946981;28;21368;-73
2021/07/19 08:22:26;;;;;;;5.53;4.57;;;21.20;99.90;;;;;;4947081;29;20995;-73
2021/07/19 08:24:53;;;;;;;5.20;4.70;;;21.30;99.90;;;;;;4946357;28;20539;-73
2021/07/19 08:27:20;;;;;;;5.40;4.70;;;21.30;99.90;;;;;;4947031;28;20971;-73
2021/07/19 08:29:49;;;;;;;5.03;4.53;;;21.40;99.90;;;;;;4945803;28;21018;-73
2021/07/19 08:32:16;;;;;;;5.03;4.37;;;21.40;99.90;;;;;;4945998;28;20467;-73
2021/07/19 08:34:45;;;;;;;4.90;3.90;;;21.50;99.90;;;;;;4946031;28;20492;-74
2021/07/19 08:37:13;;;;;;;6.97;4.73;;;21.60;99.90;;;;;;4945965;28;20570;-73
2021/07/19 08:39:40;;;;;;;7.80;4.93;;;21.60;99.90;;;;;;4945131;28;20464;-73
2021/07/19 08:42:10;;;;;;;6.00;4.93;;;21.70;99.90;;;;;;4945692;28;20496;-73
2021/07/19 08:44:37;;;;;;;5.27;4.70;;;21.80;99.90;;;;;;4945063;28;20489;-73
2021/07/19 08:47:07;;;;;;;5.17;4.67;;;21.80;99.90;;;;;;4945550;29;20479;-73
2021/07/19 08:49:34;;;;;;;5.40;4.60;;;21.90;99.90;;;;;;4945000;28;20766;-73
2021/07/19 08:52:01;;;;;;;5.60;5.20;;;22.00;99.90;;;;;;4946066;28;20456;-72
2021/07/19 08:54:33;;;;;;;5.57;4.80;;;22.10;99.90;;;;;;4945312;28;20537;-73
2021/07/19 08:57:00;;;;;;;7.70;5.70;;;22.20;99.90;;;;;;4945675;29;20488;-73
2021/07/19 08:59:29;;;;;;;5.97;4.77;;;22.30;99.90;;;;;;4944536;28;20978;-73
2021/07/19 09:01:58;;;;;;;5.20;4.60;;;22.30;99.90;;;;;;4945129;28;20499;-73
2021/07/19 09:04:25;;;;;;;5.10;4.60;;;22.40;99.90;;;;;;4945014;28;20487;-73
2021/07/19 09:06:52;;;;;;;4.80;4.33;;;22.40;99.90;;;;;;4945272;28;20472;-73
2021/07/19 09:09:27;;;;;;;8.03;5.10;;;22.40;99.90;;;;;;4944700;28;20468;-73
2021/07/19 09:11:56;;;;;;;6.17;5.63;;;22.60;99.90;;;;;;4945322;28;20559;-73
2021/07/19 09:14:23;;;;;;;4.50;4.10;;;22.60;99.90;;;;;;4944099;28;20860;-73
2021/07/19 09:16:51;;;;;;;6.77;5.00;;;22.70;99.90;;;;;;4944561;28;20979;-73
2021/07/19 09:19:19;;;;;;;5.47;4.60;;;22.80;99.90;;;;;;4944672;28;20471;-73
2021/07/19 09:21:47;;;;;;;6.10;4.33;;;22.90;99.90;;;;;;4944776;28;20492;-73
2021/07/19 09:24:16;;;;;;;4.70;4.20;;;23.00;99.90;;;;;;4945300;28;20569;-73
2021/07/19 09:26:45;;;;;;;5.60;4.70;;;23.10;99.90;;;;;;4944608;28;20483;-73
2021/07/19 09:29:15;;;;;;;5.03;4.33;;;23.20;99.90;;;;;;4944846;28;20841;-73
2021/07/19 09:31:43;;;;;;;6.07;4.60;;;23.10;99.90;;;;;;4944965;28;20547;-73
2021/07/19 09:34:15;;;;;;;5.70;4.70;;;23.00;99.90;;;;;;4945410;28;20987;-73
2021/07/19 09:36:59;;;;;;;5.40;4.70;;;22.90;99.90;;;;;;4945404;28;20467;-73
2021/07/19 09:39:26;;;;;;;4.90;4.47;;;23.10;99.90;;;;;;4944210;28;20467;-73
2021/07/19 09:42:07;;;;;;;6.40;5.03;;;23.10;99.90;;;;;;4945001;28;20899;-73
2021/07/19 09:44:36;;;;;;;4.70;4.30;;;23.20;99.90;;;;;;4944519;28;20624;-73
2021/07/19 09:47:04;;;;;;;5.20;4.70;;;23.30;99.90;;;;;;4944669;28;20955;-73
2021/07/19 09:49:32;;;;;;;6.20;4.37;;;23.40;99.90;;;;;;4944941;28;20861;-72
2021/07/19 09:52:01;;;;;;;6.23;4.47;;;23.50;99.90;;;;;;4944997;28;20837;-73
2021/07/19 09:54:35;;;;;;;5.13;4.63;;;23.60;99.90;;;;;;4944780;28;20489;-73
2021/07/19 09:57:02;;;;;;;4.67;3.90;;;23.70;99.90;;;;;;4944609;29;20896;-73
2021/07/19 09:59:29;;;;;;;4.97;4.47;;;23.70;99.90;;;;;;4944341;28;20869;-73
2021/07/19 10:01:57;;;;;;;4.17;3.87;;;23.80;99.90;;;;;;4944051;28;20468;-72
2021/07/19 10:04:24;;;;;;;5.20;4.60;;;23.90;99.90;;;;;;4945845;28;20491;-72
2021/07/19 10:06:52;;;;;;;5.43;4.67;;;24.00;99.90;;;;;;4947503;28;20841;-73
2021/07/19 10:09:20;;;;;;;6.73;4.80;;;24.10;99.90;;;;;;4947239;28;20474;-73
2021/07/19 10:11:51;;;;;;;7.77;4.63;;;24.20;99.90;;;;;;4947227;28;20464;-73
2021/07/19 10:14:27;;;;;;;4.93;4.53;;;24.30;99.90;;;;;;4947525;28;20494;-73
2021/07/19 10:16:56;;;;;;;4.67;4.27;;;24.30;99.90;;;;;;4947891;28;20962;-73
2021/07/19 10:19:25;;;;;;;4.87;4.37;;;24.40;99.90;;;;;;4943756;28;20530;-73
2021/07/19 10:21:52;;;;;;;4.53;4.03;;;24.40;99.90;;;;;;4939465;28;20481;-73
2021/07/19 10:24:19;;;;;;;5.00;4.60;;;24.30;99.90;;;;;;4940162;28;20484;-73
2021/07/19 10:26:46;;;;;;;5.00;4.50;;;24.30;99.90;;;;;;4947213;28;20472;-73
2021/07/19 10:29:15;;;;;;;4.73;4.33;;;24.30;99.90;;;;;;4947221;29;20471;-73
2021/07/19 10:31:42;;;;;;;4.83;4.20;;;24.40;99.90;;;;;;4947596;29;20719;-73
2021/07/19 10:34:12;;;;;;;4.70;4.30;;;24.50;99.90;;;;;;4947633;28;20488;-73
2021/07/19 10:36:49;;;;;;;4.90;4.23;;;24.50;99.90;;;;;;4946973;29;20467;-73
2021/07/19 10:39:21;;;;;;;6.93;6.20;;;24.60;99.90;;;;;;4947523;29;20935;-73
2021/07/19 10:41:59;;;;;;;8.53;7.43;;;24.60;99.90;;;;;;4947400;29;20476;-73
2021/07/19 10:44:28;;;;;;;14.30;11.70;;;24.70;99.90;;;;;;4946749;28;20511;-73
2021/07/19 10:46:57;;;;;;;8.53;7.30;;;24.70;99.90;;;;;;4947557;28;20918;-72
2021/07/19 10:49:30;;;;;;;5.57;4.90;;;24.60;99.90;;;;;;4946564;29;20476;-73
2021/07/19 10:52:10;;;;;;;7.73;6.00;;;24.60;99.90;;;;;;4947155;29;20575;-73
2021/07/19 10:54:47;;;;;;;6.30;5.70;;;24.60;99.90;;;;;;4946858;28;20570;-73
2021/07/19 10:57:17;;;;;;;7.00;4.87;;;24.50;99.90;;;;;;4947473;29;20563;-73
2021/07/19 10:59:45;;;;;;;4.83;4.43;;;24.30;99.90;;;;;;4946535;29;20471;-72
2021/07/19 11:02:28;;;;;;;5.50;4.97;;;24.40;99.90;;;;;;4947007;29;20460;-73
2021/07/19 11:04:55;;;;;;;7.33;5.47;;;24.60;99.90;;;;;;4946868;28;20492;-72
2021/07/19 11:07:25;;;;;;;8.40;5.00;;;24.70;99.90;;;;;;4946667;29;20471;-73
2021/07/19 11:09:52;;;;;;;4.30;4.00;;;24.80;99.90;;;;;;4946391;29;20873;-73
2021/07/19 11:12:19;;;;;;;5.13;4.67;;;24.90;99.90;;;;;;4946908;29;20819;-72
2021/07/19 11:14:48;;;;;;;5.67;4.37;;;24.90;99.90;;;;;;4945842;28;20496;-73
2021/07/19 11:17:17;;;;;;;5.03;4.60;;;24.90;99.90;;;;;;4946854;29;20956;-73
2021/07/19 11:19:44;;;;;;;4.83;4.40;;;25.00;99.90;;;;;;4946024;29;20970;-73
2021/07/19 11:22:13;;;;;;;5.17;4.73;;;25.10;99.90;;;;;;4946877;29;21057;-73
2021/07/19 11:24:43;;;;;;;4.00;3.70;;;25.10;99.90;;;;;;4946226;28;20554;-73
2021/07/19 11:27:11;;;;;;;4.27;3.87;;;24.90;99.90;;;;;;4947276;29;20570;-73
2021/07/19 11:29:39;;;;;;;3.37;3.10;;;24.70;99.90;;;;;;4946294;29;21018;-73
2021/07/19 11:32:13;;;;;;;5.43;3.97;;;24.60;99.90;;;;;;4946962;29;20479;-73
2021/07/19 11:34:41;;;;;;;4.30;3.43;;;24.50;99.90;;;;;;4946588;28;20573;-73
2021/07/19 11:37:08;;;;;;;5.10;3.93;;;24.40;99.90;;;;;;4946707;29;20471;-73
2021/07/19 11:39:51;;;;;;;6.13;3.70;;;24.50;99.90;;;;;;4946008;29;20959;-73
2021/07/19 11:42:28;;;;;;;5.00;4.00;;;24.70;99.90;;;;;;4946661;29;20468;-73
2021/07/19 11:45:06;;;;;;;6.90;4.23;;;24.80;99.90;;;;;;4946452;28;20914;-73
2021/07/19 11:47:34;;;;;;;4.87;3.53;;;25.00;99.90;;;;;;4946326;29;20567;-73
2021/07/19 11:50:05;;;;;;;4.53;3.80;;;25.10;99.90;;;;;;4945756;29;20472;-72
2021/07/19 11:52:32;;;;;;;4.87;3.80;;;25.20;99.90;;;;;;4939458;28;20464;-72
2021/07/19 11:55:00;;;;;;;3.80;3.50;;;25.30;99.90;;;;;;4944217;28;20494;-73
2021/07/19 11:57:27;;;;;;;3.80;3.50;;;25.30;99.90;;;;;;4946104;28;20472;-73
2021/07/19 11:59:54;;;;;;;6.30;4.30;;;25.40;99.90;;;;;;4944999;28;20829;-72
2021/07/19 12:02:27;;;;;;;4.00;3.70;;;25.50;99.90;;;;;;4945262;28;20472;-73
2021/07/19 12:04:54;;;;;;;3.30;3.00;;;25.40;99.90;;;;;;4944660;28;20550;-73
2021/07/19 12:07:26;;;;;;;3.80;3.20;;;25.20;99.90;;;;;;4945152;28;20476;-73
2021/07/19 12:10:03;;;;;;;3.30;3.00;;;24.90;99.90;;;;;;4944945;28;20555;-71
2021/07/19 12:12:31;;;;;;;4.73;3.13;;;24.90;99.90;;;;;;4928696;28;20471;-70
2021/07/19 12:14:59;;;;;;;4.90;3.40;;;25.00;99.90;;;;;;4926522;28;20523;-72
2021/07/19 12:17:28;;;;;;;4.00;3.50;;;25.10;99.90;;;;;;4928474;28;20471;-72
2021/07/19 12:19:55;;;;;;;3.80;3.00;;;25.00;99.90;;;;;;4963098;28;20467;-72
2021/07/19 12:22:23;;;;;;;3.63;3.00;;;25.00;99.90;;;;;;4964924;28;20967;-73
2021/07/19 12:24:55;;;;;;;3.87;3.50;;;25.00;99.90;;;;;;4963278;28;20495;-73
2021/07/19 12:27:24;;;;;;;3.57;3.20;;;25.20;99.90;;;;;;4964437;28;20490;-70
2021/07/19 12:29:52;;;;;;;3.00;2.80;;;25.30;99.90;;;;;;4965029;28;20506;-71
2021/07/19 12:32:20;;;;;;;4.20;2.83;;;25.40;99.90;;;;;;4965754;28;20562;-73
2021/07/19 12:34:48;;;;;;;2.87;2.63;;;25.40;99.90;;;;;;4965601;28;20480;-70
2021/07/19 12:37:16;;;;;;;3.97;2.80;;;25.50;99.90;;;;;;4965600;28;20475;-71
2021/07/19 12:39:48;;;;;;;2.80;2.57;;;25.50;99.90;;;;;;4964969;28;20558;-70
2021/07/19 12:42:17;;;;;;;3.83;2.50;;;25.60;99.90;;;;;;4965460;28;20534;-70
2021/07/19 12:44:51;;;;;;;3.90;3.07;;;25.70;99.90;;;;;;4964854;28;20504;-71
2021/07/19 12:47:19;;;;;;;2.93;2.67;;;25.90;99.90;;;;;;4966591;28;20463;-72
2021/07/19 12:49:47;;;;;;;3.27;2.70;;;25.90;99.90;;;;;;4973006;28;20463;-73
2021/07/19 12:52:16;;;;;;;2.77;2.47;;;25.90;99.90;;;;;;4981419;28;20467;-72
2021/07/19 12:54:55;;;;;;;3.77;2.57;;;26.00;99.90;;;;;;4976602;28;20532;-73